JBU837 KLAX-KSEA
Flight info
| Callsign | JBU837 |
|---|---|
| Flight time | 2h 9m |
| Altitude | 36000 |
| Route | LADYJ4 CSTRO SHIMR LKV HAWKZ8 |
| Aircraft | A320/M-SDE3FGHIRWY/LB1 |
Departure
| Time | 2026-04-26 18:16 |
|---|---|
| Airport | Los Angeles International Airport (KLAX) |
Arrival
| Time | 2026-04-26 20:25 |
|---|---|
| Airport | Seattle–Tacoma International Airport (KSEA) |
| Time | Latitude | Longitude | Altitude | Speed | Heading |
|---|---|---|---|---|---|
| 2026-04-26 17:36 | 33.94692 | -118.40063 | 95 ft | 0 kts | 266° |
| 2026-04-26 18:05 | 33.94692 | -118.40060 | 85 ft | 2 kts | 266° |
| 2026-04-26 18:05 | 33.94691 | -118.40030 | 94 ft | 4 kts | 293° |
| 2026-04-26 18:06 | 33.94676 | -118.40010 | 94 ft | 2 kts | 356° |
| 2026-04-26 18:06 | 33.94674 | -118.40010 | 95 ft | 0 kts | 357° |
| 2026-04-26 18:13 | 33.94693 | -118.40011 | 95 ft | 4 kts | 357° |
| 2026-04-26 18:13 | 33.94712 | -118.40012 | 95 ft | 5 kts | 357° |
| 2026-04-26 18:14 | 33.94797 | -118.40009 | 95 ft | 12 kts | 356° |
| 2026-04-26 18:14 | 33.94859 | -118.40069 | 97 ft | 12 kts | 324° |
| 2026-04-26 18:14 | 33.94917 | -118.40040 | 99 ft | 10 kts | 68° |
| 2026-04-26 18:14 | 33.94933 | -118.39957 | 100 ft | 11 kts | 66° |
| 2026-04-26 18:15 | 33.94971 | -118.39917 | 102 ft | 4 kts | 17° |
| 2026-04-26 18:15 | 33.94993 | -118.39916 | 106 ft | 8 kts | 357° |
| 2026-04-26 18:15 | 33.95034 | -118.40016 | 109 ft | 9 kts | 265° |
| 2026-04-26 18:15 | 33.95025 | -118.40123 | 109 ft | 30 kts | 264° |
| 2026-04-26 18:16 | 33.94972 | -118.40634 | 108 ft | 92 kts | 263° |
| 2026-04-26 18:16 | 33.94732 | -118.42824 | 517 ft | 141 kts | 261° |
| 2026-04-26 18:16 | 33.94569 | -118.43991 | 1116 ft | 142 kts | 263° |
| 2026-04-26 18:17 | 33.94452 | -118.45176 | 1726 ft | 143 kts | 264° |
| 2026-04-26 18:17 | 33.94343 | -118.46403 | 2013 ft | 159 kts | 264° |
| 2026-04-26 18:17 | 33.94271 | -118.47841 | 2206 ft | 184 kts | 268° |
| 2026-04-26 18:17 | 33.94229 | -118.49481 | 2506 ft | 207 kts | 268° |
| 2026-04-26 18:18 | 33.94175 | -118.51320 | 2863 ft | 231 kts | 267° |
| 2026-04-26 18:18 | 33.94052 | -118.53324 | 3481 ft | 244 kts | 265° |
| 2026-04-26 18:18 | 33.93895 | -118.55380 | 4343 ft | 248 kts | 265° |
| 2026-04-26 18:18 | 33.93729 | -118.57435 | 5205 ft | 250 kts | 265° |
| 2026-04-26 18:19 | 33.93560 | -118.59569 | 6057 ft | 254 kts | 266° |
| 2026-04-26 18:19 | 33.93717 | -118.61687 | 6869 ft | 257 kts | 285° |
| 2026-04-26 18:19 | 33.94486 | -118.63641 | 7637 ft | 263 kts | 303° |
| 2026-04-26 18:19 | 33.95795 | -118.65193 | 7930 ft | 268 kts | 323° |
| 2026-04-26 18:20 | 33.97370 | -118.66355 | 7996 ft | 268 kts | 326° |
| 2026-04-26 18:20 | 33.99087 | -118.67268 | 8002 ft | 272 kts | 340° |
| 2026-04-26 18:20 | 34.00972 | -118.67602 | 8000 ft | 277 kts | 355° |
| 2026-04-26 18:20 | 34.02262 | -118.67535 | 8001 ft | 279 kts | 359° |
| 2026-04-26 18:21 | 34.04841 | -118.67367 | 8000 ft | 280 kts | 359° |
| 2026-04-26 18:21 | 34.06784 | -118.67244 | 8001 ft | 280 kts | 359° |
| 2026-04-26 18:21 | 34.08724 | -118.66952 | 8008 ft | 284 kts | 7° |
| 2026-04-26 18:21 | 34.10677 | -118.66489 | 8721 ft | 286 kts | 6° |
| 2026-04-26 18:22 | 34.12643 | -118.66027 | 9568 ft | 288 kts | 6° |
| 2026-04-26 18:22 | 34.14620 | -118.65563 | 10292 ft | 293 kts | 6° |
| 2026-04-26 18:22 | 34.16703 | -118.65079 | 10528 ft | 316 kts | 6° |
| 2026-04-26 18:22 | 34.18934 | -118.64561 | 10784 ft | 334 kts | 6° |
| 2026-04-26 18:23 | 34.21242 | -118.64016 | 11381 ft | 339 kts | 6° |
| 2026-04-26 18:23 | 34.23549 | -118.63566 | 12039 ft | 339 kts | 359° |
| 2026-04-26 18:23 | 34.25891 | -118.63617 | 12716 ft | 336 kts | 348° |
| 2026-04-26 18:23 | 34.28196 | -118.64108 | 13435 ft | 335 kts | 345° |
| 2026-04-26 18:24 | 34.30488 | -118.64637 | 14107 ft | 337 kts | 345° |
| 2026-04-26 18:24 | 34.32806 | -118.65170 | 14700 ft | 340 kts | 345° |
| 2026-04-26 18:24 | 34.35153 | -118.65706 | 15254 ft | 344 kts | 345° |
| 2026-04-26 18:24 | 34.37520 | -118.66247 | 15795 ft | 348 kts | 345° |
| 2026-04-26 18:25 | 34.39910 | -118.66793 | 16354 ft | 351 kts | 346° |
| 2026-04-26 18:25 | 34.42326 | -118.67342 | 16898 ft | 355 kts | 346° |
| 2026-04-26 18:25 | 34.44769 | -118.67874 | 17446 ft | 359 kts | 347° |
| 2026-04-26 18:25 | 34.47242 | -118.68369 | 17998 ft | 363 kts | 348° |
| 2026-04-26 18:26 | 34.49754 | -118.68845 | 18532 ft | 367 kts | 348° |
| 2026-04-26 18:26 | 34.52292 | -118.69318 | 19049 ft | 370 kts | 348° |
| 2026-04-26 18:26 | 34.54856 | -118.69799 | 19566 ft | 374 kts | 348° |
| 2026-04-26 18:26 | 34.57435 | -118.70290 | 20092 ft | 377 kts | 347° |
| 2026-04-26 18:27 | 34.60000 | -118.70785 | 20597 ft | 380 kts | 347° |
| 2026-04-26 18:27 | 34.62629 | -118.71300 | 21103 ft | 384 kts | 347° |
| 2026-04-26 18:27 | 34.65282 | -118.71825 | 21608 ft | 387 kts | 347° |
| 2026-04-26 18:27 | 34.67952 | -118.72355 | 22077 ft | 390 kts | 347° |
| 2026-04-26 18:28 | 34.70625 | -118.72957 | 22571 ft | 391 kts | 341° |
| 2026-04-26 18:28 | 34.73190 | -118.74049 | 23045 ft | 389 kts | 332° |
| 2026-04-26 18:28 | 34.75579 | -118.75611 | 23516 ft | 390 kts | 327° |
| 2026-04-26 18:28 | 34.77922 | -118.77232 | 23914 ft | 392 kts | 327° |
| 2026-04-26 18:29 | 34.80308 | -118.78875 | 24317 ft | 395 kts | 327° |
| 2026-04-26 18:29 | 34.82711 | -118.80521 | 24696 ft | 397 kts | 327° |
| 2026-04-26 18:29 | 34.85130 | -118.82177 | 25072 ft | 399 kts | 327° |
| 2026-04-26 18:29 | 34.87563 | -118.83843 | 25445 ft | 402 kts | 327° |
| 2026-04-26 18:30 | 34.90008 | -118.85522 | 25822 ft | 404 kts | 327° |
| 2026-04-26 18:30 | 34.92461 | -118.87209 | 26159 ft | 406 kts | 327° |
| 2026-04-26 18:30 | 34.94897 | -118.88889 | 26517 ft | 408 kts | 327° |
| 2026-04-26 18:30 | 34.97409 | -118.90624 | 26867 ft | 410 kts | 327° |
| 2026-04-26 18:31 | 34.99872 | -118.92329 | 27215 ft | 412 kts | 327° |
| 2026-04-26 18:31 | 35.02379 | -118.94064 | 27560 ft | 415 kts | 327° |
| 2026-04-26 18:31 | 35.04902 | -118.95805 | 27899 ft | 417 kts | 327° |
| 2026-04-26 18:31 | 35.07435 | -118.97552 | 28231 ft | 419 kts | 327° |
| 2026-04-26 18:32 | 35.09984 | -118.99313 | 28571 ft | 422 kts | 327° |
| 2026-04-26 18:32 | 35.12545 | -119.01083 | 28899 ft | 424 kts | 327° |
| 2026-04-26 18:32 | 35.15086 | -119.02843 | 29213 ft | 426 kts | 327° |
| 2026-04-26 18:32 | 35.17687 | -119.04647 | 29526 ft | 429 kts | 327° |
| 2026-04-26 18:33 | 35.20294 | -119.06459 | 29831 ft | 431 kts | 327° |
| 2026-04-26 18:33 | 35.22876 | -119.08255 | 30219 ft | 431 kts | 327° |
| 2026-04-26 18:33 | 35.25482 | -119.10065 | 30621 ft | 430 kts | 327° |
| 2026-04-26 18:33 | 35.28093 | -119.11879 | 31004 ft | 429 kts | 326° |
| 2026-04-26 18:34 | 35.30705 | -119.13696 | 31384 ft | 429 kts | 326° |
| 2026-04-26 18:34 | 35.33301 | -119.15503 | 31769 ft | 428 kts | 326° |
| 2026-04-26 18:34 | 35.35866 | -119.17292 | 32155 ft | 428 kts | 326° |
| 2026-04-26 18:34 | 35.38452 | -119.19098 | 32543 ft | 427 kts | 326° |
| 2026-04-26 18:35 | 35.41036 | -119.20906 | 32926 ft | 427 kts | 326° |
| 2026-04-26 18:35 | 35.43647 | -119.22672 | 33322 ft | 429 kts | 330° |
| 2026-04-26 18:35 | 35.46443 | -119.24010 | 33718 ft | 433 kts | 339° |
| 2026-04-26 18:35 | 35.49373 | -119.24916 | 34080 ft | 435 kts | 341° |
| 2026-04-26 18:36 | 35.52283 | -119.25776 | 34362 ft | 435 kts | 341° |
| 2026-04-26 18:36 | 35.55232 | -119.26644 | 34645 ft | 435 kts | 341° |
| 2026-04-26 18:36 | 35.58179 | -119.27517 | 34905 ft | 436 kts | 341° |
| 2026-04-26 18:36 | 35.61134 | -119.28398 | 35164 ft | 436 kts | 341° |
| 2026-04-26 18:37 | 35.64085 | -119.29281 | 35417 ft | 437 kts | 341° |
| 2026-04-26 18:37 | 35.67044 | -119.30168 | 35662 ft | 437 kts | 341° |
| 2026-04-26 18:37 | 35.70003 | -119.31058 | 35897 ft | 438 kts | 341° |
| 2026-04-26 18:37 | 35.72964 | -119.31950 | 36017 ft | 440 kts | 341° |
| 2026-04-26 18:38 | 35.78972 | -119.33765 | 36038 ft | 447 kts | 341° |
| 2026-04-26 18:38 | 35.85007 | -119.35570 | 36034 ft | 448 kts | 341° |
| 2026-04-26 18:39 | 35.91066 | -119.37382 | 36029 ft | 448 kts | 341° |
| 2026-04-26 18:39 | 35.97151 | -119.39218 | 36022 ft | 448 kts | 341° |
| 2026-04-26 18:40 | 36.03180 | -119.41038 | 36031 ft | 448 kts | 341° |
| 2026-04-26 18:40 | 36.09259 | -119.42883 | 36042 ft | 449 kts | 341° |
| 2026-04-26 18:41 | 36.15330 | -119.44730 | 36051 ft | 449 kts | 341° |
| 2026-04-26 18:41 | 36.21448 | -119.46285 | 36064 ft | 452 kts | 345° |
| 2026-04-26 18:42 | 36.27657 | -119.47532 | 36065 ft | 452 kts | 346° |
| 2026-04-26 18:42 | 36.33858 | -119.48786 | 36069 ft | 452 kts | 345° |
| 2026-04-26 18:43 | 36.40064 | -119.50127 | 36064 ft | 452 kts | 345° |
| 2026-04-26 18:43 | 36.46215 | -119.51495 | 36055 ft | 452 kts | 345° |
| 2026-04-26 18:44 | 36.52412 | -119.52868 | 36052 ft | 452 kts | 345° |
| 2026-04-26 18:44 | 36.58609 | -119.54234 | 36045 ft | 452 kts | 345° |
| 2026-04-26 18:45 | 36.64812 | -119.55601 | 36046 ft | 451 kts | 345° |
| 2026-04-26 18:45 | 36.70972 | -119.56960 | 36047 ft | 451 kts | 345° |
| 2026-04-26 18:46 | 36.77169 | -119.58339 | 36050 ft | 451 kts | 345° |
| 2026-04-26 18:46 | 36.83358 | -119.59708 | 36051 ft | 451 kts | 345° |
| 2026-04-26 18:47 | 36.89501 | -119.61071 | 36050 ft | 451 kts | 345° |
| 2026-04-26 18:47 | 36.95688 | -119.62447 | 36041 ft | 450 kts | 345° |
| 2026-04-26 18:48 | 37.00827 | -119.63593 | 36038 ft | 450 kts | 345° |
| 2026-04-26 18:48 | 37.06998 | -119.64962 | 36029 ft | 450 kts | 345° |
| 2026-04-26 18:49 | 37.13181 | -119.66340 | 36020 ft | 450 kts | 345° |
| 2026-04-26 18:49 | 37.19312 | -119.67714 | 36017 ft | 450 kts | 345° |
| 2026-04-26 18:50 | 37.25487 | -119.69098 | 36021 ft | 450 kts | 345° |
| 2026-04-26 18:50 | 37.31621 | -119.70471 | 36019 ft | 450 kts | 345° |
| 2026-04-26 18:51 | 37.37801 | -119.71867 | 36011 ft | 450 kts | 345° |
| 2026-04-26 18:51 | 37.43970 | -119.73248 | 36021 ft | 449 kts | 345° |
| 2026-04-26 18:52 | 37.50133 | -119.74635 | 36009 ft | 449 kts | 345° |
| 2026-04-26 18:52 | 37.56288 | -119.76030 | 36009 ft | 449 kts | 345° |
| 2026-04-26 18:53 | 37.62409 | -119.77418 | 36002 ft | 449 kts | 345° |
| 2026-04-26 18:53 | 37.68584 | -119.78813 | 36006 ft | 449 kts | 345° |
| 2026-04-26 18:54 | 37.74726 | -119.80204 | 35998 ft | 448 kts | 345° |
| 2026-04-26 18:54 | 37.80847 | -119.81603 | 35994 ft | 448 kts | 345° |
| 2026-04-26 18:55 | 37.87001 | -119.83006 | 35991 ft | 448 kts | 345° |
| 2026-04-26 18:55 | 37.93158 | -119.84410 | 35988 ft | 448 kts | 345° |
| 2026-04-26 18:56 | 37.99294 | -119.85810 | 35978 ft | 448 kts | 345° |
| 2026-04-26 18:56 | 38.05438 | -119.87217 | 35975 ft | 448 kts | 345° |
| 2026-04-26 18:57 | 38.10543 | -119.88387 | 35969 ft | 448 kts | 345° |
| 2026-04-26 18:57 | 38.17695 | -119.90033 | 35962 ft | 448 kts | 345° |
| 2026-04-26 18:58 | 38.23825 | -119.91441 | 35956 ft | 448 kts | 345° |
| 2026-04-26 18:58 | 38.29969 | -119.92860 | 35944 ft | 448 kts | 345° |
| 2026-04-26 18:59 | 38.36112 | -119.94276 | 35935 ft | 448 kts | 345° |
| 2026-04-26 18:59 | 38.42246 | -119.95691 | 35928 ft | 448 kts | 345° |
| 2026-04-26 19:00 | 38.48361 | -119.97120 | 35920 ft | 448 kts | 345° |
| 2026-04-26 19:00 | 38.54499 | -119.98542 | 35914 ft | 449 kts | 345° |
| 2026-04-26 19:01 | 38.60664 | -119.99963 | 35915 ft | 449 kts | 345° |
| 2026-04-26 19:01 | 38.66824 | -120.01392 | 35915 ft | 449 kts | 345° |
| 2026-04-26 19:02 | 38.72956 | -120.02829 | 35923 ft | 449 kts | 345° |
| 2026-04-26 19:02 | 38.78065 | -120.04021 | 35940 ft | 449 kts | 345° |
| 2026-04-26 19:03 | 38.85234 | -120.05697 | 35939 ft | 448 kts | 345° |
| 2026-04-26 19:03 | 38.91388 | -120.07143 | 35935 ft | 448 kts | 345° |
| 2026-04-26 19:04 | 38.97531 | -120.08584 | 35935 ft | 448 kts | 345° |
| 2026-04-26 19:04 | 39.03628 | -120.10020 | 35927 ft | 448 kts | 345° |
| 2026-04-26 19:05 | 39.12830 | -120.12200 | 35937 ft | 447 kts | 345° |
| 2026-04-26 19:06 | 39.18966 | -120.13651 | 35951 ft | 447 kts | 345° |
| 2026-04-26 19:06 | 39.25062 | -120.15093 | 35958 ft | 447 kts | 345° |
| 2026-04-26 19:07 | 39.31184 | -120.16548 | 35957 ft | 447 kts | 345° |
| 2026-04-26 19:07 | 39.37267 | -120.17992 | 35957 ft | 447 kts | 346° |
| 2026-04-26 19:08 | 39.43397 | -120.19444 | 35950 ft | 447 kts | 346° |
| 2026-04-26 19:08 | 39.49509 | -120.20903 | 35938 ft | 447 kts | 346° |
| 2026-04-26 19:09 | 39.55598 | -120.22361 | 35925 ft | 447 kts | 346° |
| 2026-04-26 19:09 | 39.61723 | -120.23823 | 35907 ft | 447 kts | 346° |
| 2026-04-26 19:10 | 39.67842 | -120.25290 | 35897 ft | 447 kts | 346° |
| 2026-04-26 19:10 | 39.73964 | -120.26755 | 35899 ft | 447 kts | 346° |
| 2026-04-26 19:11 | 39.80068 | -120.28226 | 35889 ft | 446 kts | 346° |
| 2026-04-26 19:11 | 39.86186 | -120.29717 | 35876 ft | 446 kts | 346° |
| 2026-04-26 19:12 | 39.92259 | -120.31182 | 35873 ft | 446 kts | 346° |
| 2026-04-26 19:12 | 39.98374 | -120.32652 | 35874 ft | 446 kts | 346° |
| 2026-04-26 19:13 | 40.04467 | -120.34124 | 35877 ft | 445 kts | 346° |
| 2026-04-26 19:13 | 40.10579 | -120.35606 | 35879 ft | 445 kts | 346° |
| 2026-04-26 19:14 | 40.16669 | -120.37092 | 35885 ft | 445 kts | 346° |
| 2026-04-26 19:14 | 40.22773 | -120.38592 | 35896 ft | 446 kts | 346° |
| 2026-04-26 19:15 | 40.28875 | -120.40077 | 35904 ft | 446 kts | 346° |
| 2026-04-26 19:15 | 40.34958 | -120.41561 | 35911 ft | 446 kts | 346° |
| 2026-04-26 19:16 | 40.41065 | -120.43057 | 35915 ft | 446 kts | 346° |
| 2026-04-26 19:16 | 40.47179 | -120.44556 | 35916 ft | 446 kts | 346° |
| 2026-04-26 19:17 | 40.53250 | -120.46058 | 35914 ft | 446 kts | 346° |
| 2026-04-26 19:17 | 40.59356 | -120.47560 | 35913 ft | 446 kts | 346° |
| 2026-04-26 19:18 | 40.65457 | -120.49072 | 35914 ft | 445 kts | 346° |
| 2026-04-26 19:18 | 40.71514 | -120.50581 | 35918 ft | 445 kts | 346° |
| 2026-04-26 19:19 | 40.77623 | -120.52089 | 35922 ft | 445 kts | 346° |
| 2026-04-26 19:19 | 40.83682 | -120.53580 | 35927 ft | 445 kts | 347° |
| 2026-04-26 19:20 | 40.89782 | -120.55097 | 35940 ft | 445 kts | 346° |
| 2026-04-26 19:20 | 40.95884 | -120.56624 | 35938 ft | 445 kts | 347° |
| 2026-04-26 19:21 | 41.01939 | -120.58132 | 35929 ft | 445 kts | 347° |
| 2026-04-26 19:21 | 41.08049 | -120.59661 | 35929 ft | 445 kts | 347° |
| 2026-04-26 19:22 | 41.14112 | -120.61184 | 35923 ft | 445 kts | 347° |
| 2026-04-26 19:22 | 41.20233 | -120.62725 | 35921 ft | 445 kts | 347° |
| 2026-04-26 19:23 | 41.26288 | -120.64248 | 35912 ft | 445 kts | 347° |
| 2026-04-26 19:23 | 41.32381 | -120.65791 | 35909 ft | 445 kts | 347° |
| 2026-04-26 19:24 | 41.38430 | -120.67317 | 35915 ft | 445 kts | 347° |
| 2026-04-26 19:24 | 41.47577 | -120.69614 | 35923 ft | 445 kts | 347° |
| 2026-04-26 19:25 | 41.51615 | -120.70639 | 35921 ft | 445 kts | 347° |
| 2026-04-26 19:25 | 41.59722 | -120.72704 | 35907 ft | 445 kts | 347° |
| 2026-04-26 19:26 | 41.64774 | -120.73986 | 35894 ft | 445 kts | 347° |
| 2026-04-26 19:26 | 41.71862 | -120.75800 | 35878 ft | 445 kts | 347° |
| 2026-04-26 19:27 | 41.76913 | -120.77100 | 35868 ft | 445 kts | 347° |
| 2026-04-26 19:27 | 41.83004 | -120.78659 | 35863 ft | 445 kts | 347° |
| 2026-04-26 19:28 | 41.89098 | -120.80218 | 35867 ft | 444 kts | 347° |
| 2026-04-26 19:28 | 41.95169 | -120.81774 | 35874 ft | 444 kts | 347° |
| 2026-04-26 19:29 | 42.01205 | -120.83319 | 35875 ft | 444 kts | 347° |
| 2026-04-26 19:29 | 42.07270 | -120.84884 | 35881 ft | 443 kts | 347° |
| 2026-04-26 19:30 | 42.13354 | -120.86468 | 35885 ft | 443 kts | 347° |
| 2026-04-26 19:30 | 42.18396 | -120.87782 | 35887 ft | 443 kts | 347° |
| 2026-04-26 19:31 | 42.25437 | -120.89613 | 35892 ft | 442 kts | 347° |
| 2026-04-26 19:31 | 42.31468 | -120.91179 | 35892 ft | 442 kts | 348° |
| 2026-04-26 19:32 | 42.37521 | -120.92752 | 35895 ft | 441 kts | 348° |
| 2026-04-26 19:32 | 42.43527 | -120.94316 | 35894 ft | 441 kts | 348° |
| 2026-04-26 19:33 | 42.49556 | -120.95895 | 35890 ft | 440 kts | 348° |
| 2026-04-26 19:33 | 42.55582 | -120.97482 | 35896 ft | 440 kts | 348° |
| 2026-04-26 19:34 | 42.61604 | -120.99062 | 35902 ft | 440 kts | 348° |
| 2026-04-26 19:34 | 42.67594 | -121.00630 | 35902 ft | 440 kts | 348° |
| 2026-04-26 19:35 | 42.73615 | -121.02215 | 35900 ft | 440 kts | 348° |
| 2026-04-26 19:35 | 42.79594 | -121.03801 | 35905 ft | 439 kts | 348° |
| 2026-04-26 19:36 | 42.84632 | -121.05138 | 35901 ft | 439 kts | 348° |
| 2026-04-26 19:36 | 42.91606 | -121.06988 | 35904 ft | 439 kts | 348° |
| 2026-04-26 19:37 | 42.97609 | -121.08583 | 35899 ft | 439 kts | 348° |
| 2026-04-26 19:37 | 43.03602 | -121.10184 | 35896 ft | 438 kts | 348° |
| 2026-04-26 19:38 | 43.09568 | -121.11771 | 35897 ft | 438 kts | 348° |
| 2026-04-26 19:38 | 43.15569 | -121.13380 | 35897 ft | 438 kts | 348° |
| 2026-04-26 19:39 | 43.21532 | -121.14976 | 35895 ft | 437 kts | 348° |
| 2026-04-26 19:39 | 43.27523 | -121.16581 | 35894 ft | 437 kts | 348° |
| 2026-04-26 19:40 | 43.33458 | -121.18178 | 35897 ft | 437 kts | 348° |
| 2026-04-26 19:40 | 43.39440 | -121.19787 | 35894 ft | 437 kts | 348° |
| 2026-04-26 19:41 | 43.45396 | -121.21392 | 35897 ft | 436 kts | 348° |
| 2026-04-26 19:41 | 43.50361 | -121.22745 | 35900 ft | 436 kts | 348° |
| 2026-04-26 19:42 | 43.57318 | -121.24641 | 35901 ft | 436 kts | 348° |
| 2026-04-26 19:42 | 43.63277 | -121.26254 | 35901 ft | 436 kts | 349° |
| 2026-04-26 19:43 | 43.69220 | -121.27871 | 35901 ft | 436 kts | 349° |
| 2026-04-26 19:43 | 43.75147 | -121.29491 | 35906 ft | 436 kts | 349° |
| 2026-04-26 19:44 | 43.80910 | -121.31951 | 35904 ft | 435 kts | 336° |
| 2026-04-26 19:44 | 43.86422 | -121.35440 | 35909 ft | 435 kts | 336° |
| 2026-04-26 19:45 | 43.91914 | -121.38921 | 35908 ft | 435 kts | 336° |
| 2026-04-26 19:45 | 43.97428 | -121.42425 | 35906 ft | 434 kts | 336° |
| 2026-04-26 19:46 | 44.02923 | -121.45930 | 35906 ft | 434 kts | 336° |
| 2026-04-26 19:46 | 44.08384 | -121.49418 | 35908 ft | 433 kts | 336° |
| 2026-04-26 19:47 | 44.12941 | -121.52325 | 35909 ft | 433 kts | 336° |
| 2026-04-26 19:47 | 44.19352 | -121.56432 | 35910 ft | 432 kts | 336° |
| 2026-04-26 19:48 | 44.24783 | -121.59920 | 35913 ft | 432 kts | 336° |
| 2026-04-26 19:48 | 44.30247 | -121.63435 | 35911 ft | 431 kts | 336° |
| 2026-04-26 19:49 | 44.35681 | -121.66936 | 35908 ft | 431 kts | 336° |
| 2026-04-26 19:49 | 44.41143 | -121.70466 | 35912 ft | 430 kts | 336° |
| 2026-04-26 19:50 | 44.46557 | -121.73979 | 35911 ft | 430 kts | 336° |
| 2026-04-26 19:50 | 44.51958 | -121.77468 | 35913 ft | 429 kts | 336° |
| 2026-04-26 19:51 | 44.57391 | -121.80996 | 35913 ft | 429 kts | 336° |
| 2026-04-26 19:51 | 44.62803 | -121.84530 | 35915 ft | 428 kts | 336° |
| 2026-04-26 19:52 | 44.68186 | -121.88046 | 35919 ft | 427 kts | 336° |
| 2026-04-26 19:52 | 44.73585 | -121.91578 | 35922 ft | 427 kts | 336° |
| 2026-04-26 19:53 | 44.78955 | -121.95096 | 35918 ft | 426 kts | 336° |
| 2026-04-26 19:53 | 44.84330 | -121.98619 | 35915 ft | 426 kts | 336° |
| 2026-04-26 19:54 | 44.89710 | -122.02155 | 35915 ft | 425 kts | 336° |
| 2026-04-26 19:54 | 44.95038 | -122.05671 | 35914 ft | 425 kts | 336° |
| 2026-04-26 19:55 | 45.00397 | -122.09215 | 35917 ft | 424 kts | 336° |
| 2026-04-26 19:55 | 45.05746 | -122.12759 | 35917 ft | 424 kts | 337° |
| 2026-04-26 19:56 | 45.11065 | -122.16287 | 35920 ft | 424 kts | 337° |
| 2026-04-26 19:56 | 45.16409 | -122.19844 | 35923 ft | 423 kts | 337° |
| 2026-04-26 19:57 | 45.21754 | -122.23406 | 35924 ft | 423 kts | 337° |
| 2026-04-26 19:57 | 45.27073 | -122.26954 | 35927 ft | 422 kts | 337° |
| 2026-04-26 19:58 | 45.32351 | -122.30489 | 35927 ft | 422 kts | 337° |
| 2026-04-26 19:58 | 45.37682 | -122.34060 | 35767 ft | 429 kts | 337° |
| 2026-04-26 19:59 | 45.40399 | -122.35876 | 35520 ft | 431 kts | 337° |
| 2026-04-26 19:59 | 45.43116 | -122.37699 | 35270 ft | 430 kts | 338° |
| 2026-04-26 19:59 | 45.45778 | -122.39493 | 35038 ft | 427 kts | 338° |
| 2026-04-26 19:59 | 45.48455 | -122.41302 | 34798 ft | 423 kts | 338° |
| 2026-04-26 20:00 | 45.51103 | -122.43090 | 34561 ft | 420 kts | 338° |
| 2026-04-26 20:00 | 45.53735 | -122.44870 | 34325 ft | 416 kts | 338° |
| 2026-04-26 20:00 | 45.56347 | -122.46637 | 34087 ft | 412 kts | 338° |
| 2026-04-26 20:00 | 45.58925 | -122.48382 | 33848 ft | 408 kts | 339° |
| 2026-04-26 20:01 | 45.61481 | -122.50112 | 33565 ft | 405 kts | 339° |
| 2026-04-26 20:01 | 45.63990 | -122.51814 | 33299 ft | 402 kts | 339° |
| 2026-04-26 20:01 | 45.66518 | -122.53531 | 33021 ft | 399 kts | 339° |
| 2026-04-26 20:01 | 45.69024 | -122.55234 | 32765 ft | 397 kts | 339° |
| 2026-04-26 20:02 | 45.71518 | -122.56927 | 32495 ft | 394 kts | 339° |
| 2026-04-26 20:02 | 45.74014 | -122.58521 | 32221 ft | 390 kts | 343° |
| 2026-04-26 20:02 | 45.76600 | -122.59594 | 31965 ft | 384 kts | 351° |
| 2026-04-26 20:02 | 45.78334 | -122.60042 | 31800 ft | 382 kts | 353° |
| 2026-04-26 20:03 | 45.81800 | -122.60897 | 31440 ft | 380 kts | 353° |
| 2026-04-26 20:03 | 45.84405 | -122.61539 | 31185 ft | 378 kts | 353° |
| 2026-04-26 20:03 | 45.87001 | -122.62177 | 30934 ft | 377 kts | 353° |
| 2026-04-26 20:03 | 45.89584 | -122.62811 | 30683 ft | 375 kts | 353° |
| 2026-04-26 20:04 | 45.92145 | -122.63441 | 30417 ft | 372 kts | 353° |
| 2026-04-26 20:04 | 45.94642 | -122.64059 | 29982 ft | 368 kts | 353° |
| 2026-04-26 20:04 | 45.97183 | -122.64691 | 29468 ft | 364 kts | 352° |
| 2026-04-26 20:04 | 45.99670 | -122.65311 | 29006 ft | 360 kts | 353° |
| 2026-04-26 20:05 | 46.02134 | -122.65925 | 28547 ft | 356 kts | 353° |
| 2026-04-26 20:05 | 46.04570 | -122.66534 | 28097 ft | 353 kts | 352° |
| 2026-04-26 20:05 | 46.06943 | -122.67125 | 27667 ft | 349 kts | 352° |
| 2026-04-26 20:05 | 46.09335 | -122.67720 | 27238 ft | 346 kts | 353° |
| 2026-04-26 20:06 | 46.11713 | -122.68264 | 26818 ft | 344 kts | 354° |
| 2026-04-26 20:06 | 46.14073 | -122.68736 | 26409 ft | 342 kts | 355° |
| 2026-04-26 20:06 | 46.16409 | -122.69174 | 26003 ft | 340 kts | 354° |
| 2026-04-26 20:06 | 46.18755 | -122.69610 | 25615 ft | 338 kts | 354° |
| 2026-04-26 20:07 | 46.21087 | -122.70050 | 25218 ft | 337 kts | 354° |
| 2026-04-26 20:07 | 46.23410 | -122.70498 | 24837 ft | 335 kts | 354° |
| 2026-04-26 20:07 | 46.25717 | -122.70953 | 24454 ft | 333 kts | 354° |
| 2026-04-26 20:07 | 46.28012 | -122.71410 | 24069 ft | 331 kts | 354° |
| 2026-04-26 20:08 | 46.29519 | -122.71711 | 23808 ft | 330 kts | 354° |
| 2026-04-26 20:08 | 46.31794 | -122.72154 | 23408 ft | 328 kts | 356° |
| 2026-04-26 20:08 | 46.34750 | -122.72297 | 23209 ft | 313 kts | 359° |
| 2026-04-26 20:08 | 46.36220 | -122.72349 | 22985 ft | 310 kts | 359° |
| 2026-04-26 20:09 | 46.38340 | -122.72428 | 22598 ft | 309 kts | 359° |
| 2026-04-26 20:09 | 46.40487 | -122.72509 | 22196 ft | 307 kts | 359° |
| 2026-04-26 20:09 | 46.42623 | -122.72589 | 21776 ft | 306 kts | 359° |
| 2026-04-26 20:09 | 46.44752 | -122.72667 | 21370 ft | 305 kts | 359° |
| 2026-04-26 20:10 | 46.46879 | -122.72744 | 20947 ft | 304 kts | 359° |
| 2026-04-26 20:10 | 46.48996 | -122.72819 | 20518 ft | 304 kts | 359° |
| 2026-04-26 20:10 | 46.51115 | -122.72898 | 20093 ft | 303 kts | 359° |
| 2026-04-26 20:10 | 46.53222 | -122.72977 | 19672 ft | 303 kts | 359° |
| 2026-04-26 20:11 | 46.55313 | -122.73055 | 19247 ft | 303 kts | 359° |
| 2026-04-26 20:11 | 46.57426 | -122.73132 | 18814 ft | 304 kts | 359° |
| 2026-04-26 20:11 | 46.59542 | -122.73209 | 18389 ft | 305 kts | 359° |
| 2026-04-26 20:12 | 46.63799 | -122.73366 | 17542 ft | 303 kts | 359° |
| 2026-04-26 20:12 | 46.65908 | -122.73445 | 17126 ft | 301 kts | 359° |
| 2026-04-26 20:12 | 46.67982 | -122.73520 | 16707 ft | 300 kts | 359° |
| 2026-04-26 20:12 | 46.70077 | -122.73594 | 16273 ft | 301 kts | 359° |
| 2026-04-26 20:13 | 46.72164 | -122.73665 | 15853 ft | 301 kts | 359° |
| 2026-04-26 20:13 | 46.74267 | -122.73742 | 15428 ft | 301 kts | 359° |
| 2026-04-26 20:13 | 46.76363 | -122.73730 | 14998 ft | 301 kts | 6° |
| 2026-04-26 20:13 | 46.78387 | -122.73074 | 14574 ft | 302 kts | 19° |
| 2026-04-26 20:14 | 46.80269 | -122.71699 | 14128 ft | 304 kts | 33° |
| 2026-04-26 20:14 | 46.81935 | -122.69789 | 13701 ft | 305 kts | 38° |
| 2026-04-26 20:14 | 46.83591 | -122.67818 | 13228 ft | 307 kts | 38° |
| 2026-04-26 20:14 | 46.85236 | -122.65818 | 12789 ft | 307 kts | 40° |
| 2026-04-26 20:15 | 46.86816 | -122.63727 | 12366 ft | 307 kts | 41° |
| 2026-04-26 20:15 | 46.88344 | -122.61609 | 12093 ft | 302 kts | 42° |
| 2026-04-26 20:15 | 46.89831 | -122.59511 | 11926 ft | 292 kts | 42° |
| 2026-04-26 20:15 | 46.91280 | -122.57457 | 11664 ft | 288 kts | 43° |
| 2026-04-26 20:16 | 46.92686 | -122.55372 | 11392 ft | 286 kts | 44° |
| 2026-04-26 20:16 | 46.94066 | -122.53264 | 11036 ft | 287 kts | 45° |
| 2026-04-26 20:16 | 46.95429 | -122.51171 | 10660 ft | 287 kts | 45° |
| 2026-04-26 20:16 | 46.96810 | -122.49055 | 10300 ft | 287 kts | 45° |
| 2026-04-26 20:17 | 46.98231 | -122.47019 | 9993 ft | 284 kts | 38° |
| 2026-04-26 20:17 | 46.99911 | -122.45432 | 9467 ft | 289 kts | 28° |
| 2026-04-26 20:17 | 47.01656 | -122.43974 | 9037 ft | 286 kts | 28° |
| 2026-04-26 20:17 | 47.02784 | -122.43024 | 8800 ft | 279 kts | 28° |
| 2026-04-26 20:18 | 47.05021 | -122.41139 | 8425 ft | 275 kts | 28° |
| 2026-04-26 20:18 | 47.06680 | -122.39741 | 7971 ft | 273 kts | 28° |
| 2026-04-26 20:18 | 47.08320 | -122.38353 | 7579 ft | 272 kts | 28° |
| 2026-04-26 20:18 | 47.09935 | -122.36983 | 7209 ft | 269 kts | 28° |
| 2026-04-26 20:19 | 47.11530 | -122.35629 | 6842 ft | 260 kts | 28° |
| 2026-04-26 20:19 | 47.13153 | -122.34595 | 6489 ft | 249 kts | 13° |
| 2026-04-26 20:19 | 47.14803 | -122.33975 | 6175 ft | 243 kts | 13° |
| 2026-04-26 20:19 | 47.16447 | -122.33357 | 5849 ft | 245 kts | 13° |
| 2026-04-26 20:20 | 47.18089 | -122.32739 | 5558 ft | 243 kts | 13° |
| 2026-04-26 20:20 | 47.19739 | -122.32184 | 5180 ft | 247 kts | 7° |
| 2026-04-26 20:20 | 47.21456 | -122.31985 | 4830 ft | 244 kts | 359° |
| 2026-04-26 20:20 | 47.23131 | -122.31972 | 4503 ft | 237 kts | 358° |
| 2026-04-26 20:21 | 47.24755 | -122.31970 | 4192 ft | 230 kts | 359° |
| 2026-04-26 20:21 | 47.26327 | -122.31959 | 3906 ft | 220 kts | 359° |
| 2026-04-26 20:21 | 47.27841 | -122.31946 | 3574 ft | 211 kts | 359° |
| 2026-04-26 20:21 | 47.29282 | -122.31934 | 3307 ft | 209 kts | 359° |
| 2026-04-26 20:22 | 47.30711 | -122.31921 | 3019 ft | 198 kts | 359° |
| 2026-04-26 20:22 | 47.32044 | -122.31909 | 2777 ft | 185 kts | 359° |
| 2026-04-26 20:22 | 47.33303 | -122.31899 | 2523 ft | 177 kts | 359° |
| 2026-04-26 20:22 | 47.34473 | -122.31888 | 2290 ft | 164 kts | 359° |
| 2026-04-26 20:23 | 47.35588 | -122.31878 | 2120 ft | 155 kts | 359° |
| 2026-04-26 20:23 | 47.36648 | -122.31869 | 1885 ft | 149 kts | 359° |
| 2026-04-26 20:23 | 47.37668 | -122.31860 | 1673 ft | 146 kts | 359° |
| 2026-04-26 20:23 | 47.38692 | -122.31852 | 1478 ft | 145 kts | 359° |
| 2026-04-26 20:24 | 47.39699 | -122.31843 | 1283 ft | 146 kts | 359° |
| 2026-04-26 20:24 | 47.40709 | -122.31833 | 1098 ft | 145 kts | 359° |
| 2026-04-26 20:24 | 47.41720 | -122.31819 | 998 ft | 146 kts | 359° |
| 2026-04-26 20:24 | 47.42562 | -122.31846 | 844 ft | 146 kts | 359° |
| 2026-04-26 20:25 | 47.43267 | -122.31848 | 674 ft | 145 kts | 0° |
| 2026-04-26 20:25 | 47.43788 | -122.31836 | 560 ft | 145 kts | 2° |
| 2026-04-26 20:25 | 47.44972 | -122.31800 | 429 ft | 96 kts | 360° |
| 2026-04-26 20:25 | 47.45364 | -122.31793 | 421 ft | 43 kts | 0° |
| 2026-04-26 20:26 | 47.45627 | -122.31792 | 418 ft | 33 kts | 360° |
| 2026-04-26 20:26 | 47.45707 | -122.31792 | 422 ft | 30 kts | 0° |
| 2026-04-26 20:26 | 47.45803 | -122.31779 | 430 ft | 16 kts | 30° |
| 2026-04-26 20:26 | 47.45899 | -122.31690 | 420 ft | 23 kts | 33° |
| 2026-04-26 20:27 | 47.45994 | -122.31507 | 421 ft | 17 kts | 75° |
| 2026-04-26 20:27 | 47.46006 | -122.31334 | 428 ft | 16 kts | 91° |
| 2026-04-26 20:27 | 47.46005 | -122.31277 | 422 ft | 0 kts | 91° |
| 2026-04-26 20:29 | 47.46005 | -122.31273 | 424 ft | 3 kts | 91° |
| 2026-04-26 20:29 | 47.46005 | -122.31153 | 424 ft | 20 kts | 90° |
| 2026-04-26 20:29 | 47.46008 | -122.30878 | 417 ft | 32 kts | 89° |
| 2026-04-26 20:29 | 47.45982 | -122.30627 | 418 ft | 12 kts | 147° |
| 2026-04-26 20:30 | 47.45902 | -122.30625 | 424 ft | 14 kts | 178° |
| 2026-04-26 20:30 | 47.45770 | -122.30615 | 426 ft | 23 kts | 179° |
| 2026-04-26 20:30 | 47.45599 | -122.30613 | 428 ft | 26 kts | 181° |
| 2026-04-26 20:30 | 47.45413 | -122.30615 | 426 ft | 28 kts | 180° |
| 2026-04-26 20:31 | 47.45215 | -122.30615 | 426 ft | 28 kts | 181° |
| 2026-04-26 20:31 | 47.45011 | -122.30621 | 427 ft | 30 kts | 181° |
| 2026-04-26 20:31 | 47.44796 | -122.30613 | 428 ft | 27 kts | 181° |
| 2026-04-26 20:31 | 47.44694 | -122.30621 | 425 ft | 0 kts | 182° |
| 2026-04-26 20:32 | 47.44692 | -122.30621 | 424 ft | 2 kts | 182° |
| 2026-04-26 20:33 | 47.44643 | -122.30623 | 421 ft | 12 kts | 181° |
| 2026-04-26 20:33 | 47.44521 | -122.30623 | 424 ft | 23 kts | 180° |
| 2026-04-26 20:33 | 47.44368 | -122.30624 | 422 ft | 22 kts | 182° |
| 2026-04-26 20:33 | 47.44210 | -122.30626 | 424 ft | 24 kts | 179° |
| 2026-04-26 20:34 | 47.44056 | -122.30624 | 425 ft | 22 kts | 180° |
| 2026-04-26 20:34 | 47.43892 | -122.30628 | 426 ft | 25 kts | 180° |
| 2026-04-26 20:34 | 47.43722 | -122.30621 | 421 ft | 19 kts | 154° |
| 2026-04-26 20:34 | 47.43705 | -122.30521 | 422 ft | 10 kts | 88° |
| 2026-04-26 20:35 | 47.43704 | -122.30402 | 432 ft | 13 kts | 91° |
| 2026-04-26 20:35 | 47.43714 | -122.30263 | 432 ft | 11 kts | 66° |
| 2026-04-26 20:35 | 47.43748 | -122.30234 | 425 ft | 6 kts | 14° |
| 2026-04-26 20:35 | 47.43791 | -122.30215 | 430 ft | 0 kts | 19° |
| 2026-04-26 20:36 | 47.43801 | -122.30210 | 424 ft | 1 kts | 18° |
| 2026-04-26 20:36 | 47.43804 | -122.30209 | 432 ft | 0 kts | 18° |